Haxtun, CO (80731)

6:17 AM MST on December 06, 2016 (GMT -0700)
Far Northeast Colorado | | Change Station

Elev 3835 ft 40.71 °N, 102.38 °W | Updated 5 seconds ago

Clear
Clear
2.3 °F
Feels Like 2 °F
N
1.1
Wind Variable Wind from West

Today
High -- | Low -- °F
--% Chance of Precip.
Yesterday
High -- | Low -- °F
Precip. -- in
Pressure 30.01 in
Visibility 10.0 miles
Clouds Clear
Windchill 2 °F
Dew Point -0 °F
Humidity 88%
Rainfall 0.00 in
Snow Depth Not available.
7:00 AM 4:23 PM
Waxing Crescent, 41% visible
METAR KHEQ 061315Z AUTO 27008KT 10SM CLR M11/M15 A3001 RMK AO2
Pressure 30.01 in
Visibility 10.0 miles
Clouds Clear
Windchill 2 °F
Dew Point -0 °F
Humidity 88%
Rainfall 0.00 in
Snow Depth Not available.
7:00 AM 4:23 PM
Waxing Crescent, 41% visible
METAR KHEQ 061315Z AUTO 27008KT 10SM CLR M11/M15 A3001 RMK AO2

10-Day Weather Forecast

Almanac

Astronomy

Dec. 06, 2016 Rise Set
Actual Time
Civil Twilight
Nautical Twilight
Astronomical Twilight
Moon
Length of Visible Light
Length of Day
Tomorrow will be .
, % of the Moon is Illuminated

Today's Extremes

State Highs State Lows

Community

WunderPhotos

Upload Photos

1,955,938 photos uploaded!

WunderBlog® & News

Nearby

Air Quality

  Air Quality AQ Index Pollutant
Not available.

Snow Depth

Station Depth Elevation

Earthquake Activity

City Distance Mag. Time & Date
Minimum magnitude displayed is 2.5.

Coastal Water Temperatures

Place Temperature

Stations

Nearby Weather Stations

Station Location Temp. Windchill Dew Point Humidity Wind Precip. Elev Updated Type
                   

Watches & Warnings

There are currently no watches in effect.